Latest Coastal Weather Observations for Bunbury

IDW60701

Issued at 5:29 pm WST Saturday 20 December 2014 (issued every 10 minutes, with the page automatically refreshed every 10 minutes)

About coastal observations | Map of coastal stations | Coastal observations for WA | Marine services | Other Formats
Station Details ID: 009965 Name: BUNBURY Lat: -33.36 Lon: 115.64 Height: 5.2 m
Data from the previous 72 hours. | See also: Recent months at Bunbury
Date/Time
WST
Temp

°C
Wind Pressure Rain
since 9am
mm
Weather Cloud Vis
km
Sea
Height
m
Swell
Dir
 
Speed
knots
Gust
knots
hPa Trend Height
m
Period
s
Dir
20/05:08pm 25.4 SSE 17 27 1011.5 - 0.0 - - - - - - -
20/05:00pm 25.8 SSE 16 22 1011.3 - 0.0 - - - - - - -
20/04:30pm 26.2 SSE 15 23 1010.9 - 0.0 - - - - - - -
20/04:00pm 26.7 SSE 16 25 1010.8 - 0.0 - - - - - - -
20/03:55pm 27.7 SSE 15 25 1010.8 - 0.0 - - - - - - -
20/03:30pm 27.5 SSE 14 25 1010.6 - 0.0 - - - - - - -
20/03:00pm 27.9 S 15 23 1010.4 - 0.0 - - - - - - -
20/02:30pm 27.9 S 16 25 1010.3 - 0.0 - - - - - - -
20/02:09pm 27.9 SSE 15 28 1010.2 - 0.0 - - - - - - -
20/02:00pm 28.2 S 15 21 1010.3 - 0.0 - - - - - - -
20/01:30pm 27.9 S 19 28 1010.1 - 0.0 - - - - - - -
20/01:12pm 27.6 S 15 25 1009.9 - 0.0 - - - - - - -
20/01:00pm 27.6 S 17 25 1010.0 - 0.0 - - - - - - -
20/12:30pm 27.0 S 14 20 1009.9 - 0.0 - - - - - - -
20/12:17pm 26.4 SSE 17 27 1010.0 - 0.0 - - - - - - -
20/12:00pm 25.6 S 15 22 1010.0 - 0.0 - - - - - - -
20/11:30am 25.4 S 17 25 1009.8 - 0.0 - - - - - - -
20/11:00am 25.2 S 18 26 1009.6 - 0.0 - - - - - - -
20/10:30am 25.4 S 16 24 1009.4 - 0.0 - - - - - - -
20/10:00am 25.3 SSW 15 22 1009.1 - 0.0 - - - - - - -
20/09:30am 24.9 SSE 13 20 1009.1 - 0.0 - - - - - - -
20/09:00am 23.7 S 15 20 1009.1 - 0.4 - - - - - - -
20/08:30am 23.2 S 13 18 1009.1 - 0.4 - - - - - - -
20/08:00am 21.9 S 12 20 1009.2 - 0.4 - - - - - - -
20/07:30am 21.2 S 12 17 1009.3 - 0.4 - - - - - - -
20/07:00am 20.1 S 12 17 1009.2 - 0.4 - - - - - - -
20/06:30am 19.3 S 10 14 1009.1 - 0.4 - - - - - - -
20/06:00am 18.1 S 10 16 1008.8 - 0.4 - - - - - - -
20/05:30am 18.0 SSW 8 12 1008.5 - 0.4 - - - - - - -
20/05:00am 18.5 SSW 7 10 1007.8 - 0.4 - - - - - - -
20/04:30am 19.5 SSW 6 8 1007.5 - 0.4 - - - - - - -
20/04:00am 19.2 S 6 8 1007.3 - 0.4 - - - - - - -
20/03:30am 19.2 S 5 6 1007.0 - 0.4 - - - - - - -
20/03:00am 19.3 SSW 6 7 1007.1 - 0.4 - - - - - - -
20/02:30am 20.8 SSE 5 7 1007.3 - 0.4 - - - - - - -
20/02:00am 20.8 SSE 5 6 1007.6 - 0.4 - - - - - - -
20/01:30am 20.3 S 6 7 1008.0 - 0.4 - - - - - - -
20/01:00am 20.9 SE 6 10 1008.5 - 0.4 - - - - - - -
20/12:30am 21.2 SSE 7 12 1008.8 - 0.4 - - - - - - -
20/12:00am 22.8 SSE 6 11 1009.4 - 0.0 - - - - - - -
 
Date/Time
WST
Temp

°C
Wind Pressure Rain
since 9am
mm
Weather Cloud Vis
km
Sea
Height
m
Swell
Dir
 
Speed
knots
Gust
knots
hPa Trend Height
m
Period
s
Dir
19/11:30pm 22.4 SSE 8 11 1009.5 - 0.0 - - - - - - -
19/11:00pm 22.2 S 7 11 1010.1 - 0.0 - - - - - - -
19/10:30pm 22.8 SSE 7 13 1009.9 - 0.0 - - - - - - -
19/10:00pm 23.0 SSE 7 12 1010.2 - 0.0 - - - - - - -
19/09:30pm 23.3 S 10 14 1010.1 - 0.0 - - - - - - -
19/09:00pm 24.0 S 9 13 1009.6 - 0.0 - - - - - - -
19/08:30pm 24.5 S 10 16 1009.2 - 0.0 - - - - - - -
19/08:00pm 25.4 S 10 15 1009.0 - 0.0 - - - - - - -
19/07:30pm 26.1 S 11 17 1008.5 - 0.0 - - - - - - -
19/07:00pm 27.4 S 11 20 1008.3 - 0.0 - - - - - - -
19/06:30pm 29.3 S 12 21 1008.0 - 0.0 - - - - - - -
19/06:00pm 31.2 SSW 15 21 1007.8 - 0.0 - - - - - - -
19/05:30pm 33.7 SSW 12 19 1007.7 - 0.0 - - - - - - -
19/05:00pm 32.8 SW 12 21 1007.8 - 0.0 - - - - - - -
19/04:30pm 34.2 SW 11 15 1008.3 - 0.0 - - - - - - -
19/04:00pm 34.4 SW 12 17 1008.8 - 0.0 - - - - - - -
19/03:30pm 33.5 SW 10 15 1009.1 - 0.0 - - - - - - -
19/03:00pm 32.7 WSW 9 13 1009.6 - 0.0 - - - - - - -
19/02:30pm 32.1 SW 10 12 1010.1 - 0.0 - - - - - - -
19/02:00pm 32.4 SW 10 14 1010.6 - 0.0 - - - - - - -
19/01:30pm 31.3 WSW 9 13 1011.1 - 0.0 - - - - - - -
19/01:00pm 30.7 SW 10 13 1011.6 - 0.0 - - - - - - -
19/12:30pm 30.7 WSW 7 9 1012.0 - 0.0 - - - - - - -
19/12:00pm 32.6 SW 6 10 1012.6 - 0.0 - - - - - - -
19/11:30am 32.8 S 3 6 1013.0 - 0.0 - - - - - - -
19/11:00am 32.0 ESE 3 8 1013.3 - 0.0 - - - - - - -
19/10:30am 31.2 E 5 8 1013.6 - 0.0 - - - - - - -
19/10:00am 30.6 ENE 5 9 1013.8 - 0.0 - - - - - - -
19/09:30am 28.5 E 6 9 1014.2 - 0.0 - - - - - - -
19/09:00am 27.0 E 8 12 1014.6 - - - - - - - - -
19/08:30am 25.6 ENE 8 13 1014.9 - - - - - - - - -
19/08:00am 24.3 ENE 11 16 1015.2 - - - - - - - - -
19/07:30am 23.7 ENE 7 13 1015.2 - - - - - - - - -
19/07:00am 21.9 E 8 13 1015.3 - - - - - - - - -
19/06:30am 20.5 E 7 13 1015.2 - - - - - - - - -
19/06:00am 18.5 E 5 10 1015.3 - - - - - - - - -
19/05:30am 14.9 SSE 2 3 1015.3 - - - - - - - - -
19/05:00am 13.6 S 1 6 1015.1 - - - - - - - - -
19/04:30am 15.2 SSE 3 5 1015.0 - - - - - - - - -
19/04:00am 15.6 ESE 2 4 1014.8 - - - - - - - - -
19/03:30am 16.1 ESE 5 7 1014.6 - - - - - - - - -
19/03:00am 15.5 ESE 4 5 1014.5 - 0.0 - - - - - - -
19/02:30am 16.6 SE 4 6 1014.6 - - - - - - - - -
19/02:00am 17.3 SE 6 8 1014.5 - - - - - - - - -
19/01:30am 17.5 SE 6 8 1014.6 - - - - - - - - -
19/01:00am 18.0 SE 5 8 1014.8 - - - - - - - - -
19/12:30am 17.8 SE 4 8 1015.2 - - - - - - - - -
19/12:00am 18.1 SSE 5 7 1015.5 - - - - - - - - -
 
Date/Time
WST
Temp

°C
Wind Pressure Rain
since 9am
mm
Weather Cloud Vis
km
Sea
Height
m
Swell
Dir
 
Speed
knots
Gust
knots
hPa Trend Height
m
Period
s
Dir
18/11:30pm 18.2 SE 8 11 1015.5 - - - - - - - - -
18/11:00pm 18.2 SSE 8 12 1015.8 - - - - - - - - -
18/10:30pm 17.9 SSE 8 12 1015.9 - - - - - - - - -
18/10:00pm 18.2 SSE 8 12 1015.9 - - - - - - - - -
18/09:30pm 18.6 S 9 13 1015.8 - - - - - - - - -
18/09:00pm 19.2 S 9 13 1015.7 - 0.0 - - - - - - -
18/08:30pm 19.9 S 10 15 1015.5 - - - - - - - - -
18/08:00pm 20.9 S 10 16 1015.4 - - - - - - - - -
18/07:30pm 22.1 S 10 15 1015.1 - - - - - - - - -
18/07:00pm 23.7 SSW 11 17 1014.7 - - - - - - - - -
18/06:30pm 25.3 SSW 9 16 1014.4 - - - - - - - - -
18/06:00pm 25.0 SW 11 17 1014.1 - - - - - - - - -
18/05:30pm 24.0 SW 12 17 1014.1 - - - - - - - - -
18/05:00pm 24.2 SW 12 18 1014.3 - - - - - - - - -
18/04:30pm 24.5 SW 12 18 1014.6 - - - - - - - - -
18/04:00pm 24.1 WSW 12 17 1014.9 - - - - - - - - -
18/03:30pm 24.4 SW 12 17 1015.2 - - - - - - - - -
18/03:00pm 24.0 SW 11 17 1015.5 - - - - - - - - -
18/02:30pm 23.3 WSW 11 14 1015.9 - - - - - - - - -
18/02:00pm 23.4 WSW 12 16 1016.3 - - - - - - - - -
18/01:30pm 23.1 WSW 11 15 1016.4 - - - - - - - - -
18/01:00pm 23.1 WSW 9 12 1016.7 - - - - - - - - -
18/12:30pm 23.6 WSW 8 12 1017.0 - - - - - - - - -
18/12:00pm 22.3 W 9 12 1017.3 - - - - - - - - -
18/11:30am 22.8 W 8 12 1017.4 - - - - - - - - -
18/11:00am 23.2 W 6 9 1017.7 - - - - - - - - -
18/10:30am 24.7 E 5 9 1017.9 - - - - - - - - -
18/10:00am 22.9 SSE 5 9 1018.2 - - - - - - - - -
18/08:30am 19.6 E 8 11 - - - - - - - - - -
18/08:00am 19.3 ESE 8 13 - - - - - - - - - -
18/07:30am 17.4 E 8 12 - - - - - - - - - -
18/07:00am 16.1 ESE 4 5 - - - - - - - - - -
18/06:30am 14.3 ESE 3 4 - - - - - - - - - -
18/06:00am 12.7 ESE 3 3 - - - - - - - - - -
18/05:30am 10.7 ESE 4 5 - - - - - - - - - -
18/05:00am 10.7 ESE 4 6 - - - - - - - - - -
18/04:30am 11.2 SSE 4 6 - - - - - - - - - -
18/04:00am 10.6 SE 4 5 - - - - - - - - - -
18/03:30am 10.7 SE 3 4 - - - - - - - - - -
18/03:00am 10.4 ESE 3 3 - - 0.0 - - - - - - -
18/02:30am 11.9 SSE 4 5 - - - - - - - - - -
18/02:00am 12.5 SSE 5 7 - - - - - - - - - -
18/01:30am 12.6 SSE 5 8 - - - - - - - - - -
18/01:00am 13.2 SE 6 8 - - - - - - - - - -
18/12:30am 13.5 SE 7 10 - - - - - - - - - -
18/12:00am 13.9 SSE 7 10 - - - - - - - - - -
 
Date/Time
WST
Temp

°C
Wind Pressure Rain
since 9am
mm
Weather Cloud Vis
km
Sea
Height
m
Swell
Dir
 
Speed
knots
Gust
knots
hPa Trend Height
m
Period
s
Dir
17/11:30pm 14.2 SSE 8 11 - - - - - - - - - -
17/11:00pm 14.5 SSE 8 12 - - - - - - - - - -
17/10:30pm 14.7 SSE 7 11 - - - - - - - - - -
17/10:00pm 15.4 S 8 13 - - - - - - - - - -
17/09:30pm 15.6 S 9 14 - - - - - - - - - -
17/09:00pm 16.3 S 9 12 - - - - - - - - - -
17/08:30pm 17.0 S 11 15 - - - - - - - - - -
17/08:00pm 17.6 S 10 17 - - - - - - - - - -
17/07:30pm 18.5 S 11 17 - - - - - - - - - -
17/07:00pm 19.7 S 10 13 - - - - - - - - - -
17/06:30pm 21.1 S 11 16 - - - - - - - - - -
17/06:00pm 22.4 S 10 15 - - - - - - - - - -
17/05:30pm 23.3 S 9 14 - - - - - - - - - -

Other Formats:

Comma delimited format used in spreadsheet applications
http://www.bom.gov.au/fwo/IDW60701/IDW60701.94604.axf

JavaScript Object Notation format (JSON) in row-major order
http://www.bom.gov.au/fwo/IDW60701/IDW60701.94604.json